sensor_id;sensor_type;location;lat;lon;timestamp;P1;durP1;ratioP1;P2;durP2;ratioP2
62338;SDS011;48368;53.406;6.214;2022-12-18T00:01:47;130.95;;;36.58;;
62338;SDS011;48368;53.406;6.214;2022-12-18T00:04:23;145.75;;;40.05;;
62338;SDS011;48368;53.406;6.214;2022-12-18T00:06:50;160.20;;;46.42;;
62338;SDS011;48368;53.406;6.214;2022-12-18T00:09:16;141.68;;;41.78;;
62338;SDS011;48368;53.406;6.214;2022-12-18T00:11:42;143.15;;;40.17;;
62338;SDS011;48368;53.406;6.214;2022-12-18T00:14:08;150.98;;;41.10;;
62338;SDS011;48368;53.406;6.214;2022-12-18T00:16:35;142.48;;;42.45;;
62338;SDS011;48368;53.406;6.214;2022-12-18T00:19:02;139.80;;;42.65;;
62338;SDS011;48368;53.406;6.214;2022-12-18T00:21:29;156.63;;;46.25;;
62338;SDS011;48368;53.406;6.214;2022-12-18T00:23:56;129.50;;;38.72;;
62338;SDS011;48368;53.406;6.214;2022-12-18T00:26:24;168.07;;;45.40;;
62338;SDS011;48368;53.406;6.214;2022-12-18T00:28:51;150.38;;;43.92;;
62338;SDS011;48368;53.406;6.214;2022-12-18T00:31:18;145.85;;;42.00;;
62338;SDS011;48368;53.406;6.214;2022-12-18T00:33:46;151.00;;;43.15;;
62338;SDS011;48368;53.406;6.214;2022-12-18T00:36:14;134.30;;;38.63;;
62338;SDS011;48368;53.406;6.214;2022-12-18T00:38:42;150.88;;;43.92;;
62338;SDS011;48368;53.406;6.214;2022-12-18T00:41:09;144.70;;;36.97;;
62338;SDS011;48368;53.406;6.214;2022-12-18T00:43:36;152.70;;;42.47;;
62338;SDS011;48368;53.406;6.214;2022-12-18T00:46:03;142.05;;;42.58;;
62338;SDS011;48368;53.406;6.214;2022-12-18T00:48:29;153.07;;;40.55;;
62338;SDS011;48368;53.406;6.214;2022-12-18T00:50:55;161.98;;;44.38;;
62338;SDS011;48368;53.406;6.214;2022-12-18T00:53:21;157.18;;;41.58;;
62338;SDS011;48368;53.406;6.214;2022-12-18T00:55:46;148.35;;;40.15;;
62338;SDS011;48368;53.406;6.214;2022-12-18T00:58:13;161.27;;;43.70;;
62338;SDS011;48368;53.406;6.214;2022-12-18T01:00:40;159.65;;;46.60;;
62338;SDS011;48368;53.406;6.214;2022-12-18T01:03:06;140.85;;;39.33;;
62338;SDS011;48368;53.406;6.214;2022-12-18T01:05:32;156.57;;;42.80;;
62338;SDS011;48368;53.406;6.214;2022-12-18T01:07:58;167.60;;;49.45;;
62338;SDS011;48368;53.406;6.214;2022-12-18T01:10:24;140.10;;;40.13;;
62338;SDS011;48368;53.406;6.214;2022-12-18T01:12:51;144.48;;;38.70;;
62338;SDS011;48368;53.406;6.214;2022-12-18T01:15:16;153.75;;;43.85;;
62338;SDS011;48368;53.406;6.214;2022-12-18T01:17:42;162.93;;;48.25;;
62338;SDS011;48368;53.406;6.214;2022-12-18T01:20:08;131.70;;;37.05;;
62338;SDS011;48368;53.406;6.214;2022-12-18T01:22:35;142.00;;;41.65;;
62338;SDS011;48368;53.406;6.214;2022-12-18T01:25:01;145.55;;;41.78;;
62338;SDS011;48368;53.406;6.214;2022-12-18T01:27:29;141.90;;;43.35;;
62338;SDS011;48368;53.406;6.214;2022-12-18T01:29:54;172.23;;;46.75;;
62338;SDS011;48368;53.406;6.214;2022-12-18T01:32:20;145.85;;;41.83;;
62338;SDS011;48368;53.406;6.214;2022-12-18T01:34:47;159.65;;;43.03;;
62338;SDS011;48368;53.406;6.214;2022-12-18T01:37:12;151.25;;;43.42;;
62338;SDS011;48368;53.406;6.214;2022-12-18T01:39:38;158.15;;;42.50;;
62338;SDS011;48368;53.406;6.214;2022-12-18T01:42:05;151.50;;;41.05;;
62338;SDS011;48368;53.406;6.214;2022-12-18T01:47:43;131.13;;;36.15;;
62338;SDS011;48368;53.406;6.214;2022-12-18T01:50:16;164.13;;;43.17;;
62338;SDS011;48368;53.406;6.214;2022-12-18T01:52:48;160.75;;;44.45;;
62338;SDS011;48368;53.406;6.214;2022-12-18T01:55:18;152.85;;;42.22;;
62338;SDS011;48368;53.406;6.214;2022-12-18T01:57:47;147.73;;;44.47;;
62338;SDS011;48368;53.406;6.214;2022-12-18T02:00:15;167.93;;;43.20;;
62338;SDS011;48368;53.406;6.214;2022-12-18T02:02:43;148.90;;;43.83;;
62338;SDS011;48368;53.406;6.214;2022-12-18T02:05:11;139.38;;;43.00;;
62338;SDS011;48368;53.406;6.214;2022-12-18T02:07:59;140.35;;;39.97;;
62338;SDS011;48368;53.406;6.214;2022-12-18T02:16:31;138.02;;;34.63;;
62338;SDS011;48368;53.406;6.214;2022-12-18T02:19:15;129.45;;;37.25;;
62338;SDS011;48368;53.406;6.214;2022-12-18T02:25:00;143.77;;;41.15;;
62338;SDS011;48368;53.406;6.214;2022-12-18T02:27:33;126.80;;;35.88;;
62338;SDS011;48368;53.406;6.214;2022-12-18T02:30:02;146.02;;;36.67;;
62338;SDS011;48368;53.406;6.214;2022-12-18T02:32:31;141.27;;;38.90;;
62338;SDS011;48368;53.406;6.214;2022-12-18T02:35:04;122.82;;;33.42;;
62338;SDS011;48368;53.406;6.214;2022-12-18T02:37:32;145.20;;;36.58;;
62338;SDS011;48368;53.406;6.214;2022-12-18T02:39:59;143.48;;;41.67;;
62338;SDS011;48368;53.406;6.214;2022-12-18T02:42:27;134.40;;;38.55;;
62338;SDS011;48368;53.406;6.214;2022-12-18T02:44:53;134.13;;;38.28;;
62338;SDS011;48368;53.406;6.214;2022-12-18T02:47:23;131.77;;;37.92;;
62338;SDS011;48368;53.406;6.214;2022-12-18T02:49:59;149.63;;;39.47;;
62338;SDS011;48368;53.406;6.214;2022-12-18T02:58:11;133.23;;;37.80;;
62338;SDS011;48368;53.406;6.214;2022-12-18T03:01:08;141.07;;;38.30;;
62338;SDS011;48368;53.406;6.214;2022-12-18T03:03:48;143.82;;;39.08;;
62338;SDS011;48368;53.406;6.214;2022-12-18T03:06:33;133.52;;;38.28;;
62338;SDS011;48368;53.406;6.214;2022-12-18T03:09:06;138.93;;;37.50;;
62338;SDS011;48368;53.406;6.214;2022-12-18T03:11:34;119.95;;;33.47;;
62338;SDS011;48368;53.406;6.214;2022-12-18T03:14:23;127.72;;;37.05;;
62338;SDS011;48368;53.406;6.214;2022-12-18T03:16:55;143.23;;;36.50;;
62338;SDS011;48368;53.406;6.214;2022-12-18T03:19:26;113.63;;;36.90;;
62338;SDS011;48368;53.406;6.214;2022-12-18T03:21:56;145.55;;;39.28;;
62338;SDS011;48368;53.406;6.214;2022-12-18T03:24:23;135.48;;;36.25;;
62338;SDS011;48368;53.406;6.214;2022-12-18T03:26:52;130.30;;;37.58;;
62338;SDS011;48368;53.406;6.214;2022-12-18T03:29:24;133.05;;;35.45;;
62338;SDS011;48368;53.406;6.214;2022-12-18T03:31:56;124.65;;;36.60;;
62338;SDS011;48368;53.406;6.214;2022-12-18T03:34:55;128.60;;;37.53;;
62338;SDS011;48368;53.406;6.214;2022-12-18T03:37:24;131.00;;;37.70;;
62338;SDS011;48368;53.406;6.214;2022-12-18T03:39:50;130.60;;;38.10;;
62338;SDS011;48368;53.406;6.214;2022-12-18T03:53:14;113.30;;;31.55;;
62338;SDS011;48368;53.406;6.214;2022-12-18T03:55:51;111.18;;;31.67;;
62338;SDS011;48368;53.406;6.214;2022-12-18T03:58:19;112.30;;;35.30;;
62338;SDS011;48368;53.406;6.214;2022-12-18T04:00:49;120.80;;;33.63;;
62338;SDS011;48368;53.406;6.214;2022-12-18T04:03:18;134.55;;;35.42;;
62338;SDS011;48368;53.406;6.214;2022-12-18T04:05:46;122.47;;;36.97;;
62338;SDS011;48368;53.406;6.214;2022-12-18T04:08:18;123.25;;;32.92;;
62338;SDS011;48368;53.406;6.214;2022-12-18T04:10:44;129.57;;;34.75;;
62338;SDS011;48368;53.406;6.214;2022-12-18T04:13:10;117.60;;;32.75;;
62338;SDS011;48368;53.406;6.214;2022-12-18T04:15:36;119.50;;;35.33;;
62338;SDS011;48368;53.406;6.214;2022-12-18T04:18:03;129.95;;;35.92;;
62338;SDS011;48368;53.406;6.214;2022-12-18T04:20:28;117.43;;;34.22;;
62338;SDS011;48368;53.406;6.214;2022-12-18T04:22:54;116.70;;;36.55;;
62338;SDS011;48368;53.406;6.214;2022-12-18T04:25:19;117.80;;;34.30;;
62338;SDS011;48368;53.406;6.214;2022-12-18T04:27:45;112.63;;;35.28;;
62338;SDS011;48368;53.406;6.214;2022-12-18T04:30:11;120.47;;;35.92;;
62338;SDS011;48368;53.406;6.214;2022-12-18T04:32:37;117.22;;;36.25;;
62338;SDS011;48368;53.406;6.214;2022-12-18T04:35:03;117.38;;;36.15;;
62338;SDS011;48368;53.406;6.214;2022-12-18T04:37:31;133.68;;;41.80;;
62338;SDS011;48368;53.406;6.214;2022-12-18T04:39:57;117.40;;;36.22;;
62338;SDS011;48368;53.406;6.214;2022-12-18T04:42:22;136.95;;;41.75;;
62338;SDS011;48368;53.406;6.214;2022-12-18T04:44:48;126.78;;;38.15;;
62338;SDS011;48368;53.406;6.214;2022-12-18T04:47:14;135.60;;;37.60;;
62338;SDS011;48368;53.406;6.214;2022-12-18T04:49:40;113.70;;;36.05;;
62338;SDS011;48368;53.406;6.214;2022-12-18T04:52:06;117.55;;;38.63;;
62338;SDS011;48368;53.406;6.214;2022-12-18T04:54:31;116.43;;;37.97;;
62338;SDS011;48368;53.406;6.214;2022-12-18T04:56:57;135.93;;;44.58;;
62338;SDS011;48368;53.406;6.214;2022-12-18T04:59:23;118.00;;;37.08;;
62338;SDS011;48368;53.406;6.214;2022-12-18T05:01:48;123.32;;;41.10;;
62338;SDS011;48368;53.406;6.214;2022-12-18T05:04:14;119.40;;;36.17;;
62338;SDS011;48368;53.406;6.214;2022-12-18T05:06:40;120.80;;;38.53;;
62338;SDS011;48368;53.406;6.214;2022-12-18T05:09:06;124.68;;;37.47;;
62338;SDS011;48368;53.406;6.214;2022-12-18T05:11:32;113.97;;;38.90;;
62338;SDS011;48368;53.406;6.214;2022-12-18T05:13:57;124.35;;;41.03;;
62338;SDS011;48368;53.406;6.214;2022-12-18T05:16:23;99.60;;;32.60;;
62338;SDS011;48368;53.406;6.214;2022-12-18T05:18:48;124.40;;;37.88;;
62338;SDS011;48368;53.406;6.214;2022-12-18T05:21:14;111.28;;;35.55;;
62338;SDS011;48368;53.406;6.214;2022-12-18T05:23:40;127.05;;;42.95;;
62338;SDS011;48368;53.406;6.214;2022-12-18T05:26:06;111.18;;;36.70;;
62338;SDS011;48368;53.406;6.214;2022-12-18T05:28:33;114.15;;;36.97;;
62338;SDS011;48368;53.406;6.214;2022-12-18T05:31:00;125.20;;;36.85;;
62338;SDS011;48368;53.406;6.214;2022-12-18T05:33:29;102.03;;;33.97;;
62338;SDS011;48368;53.406;6.214;2022-12-18T05:35:59;117.15;;;35.53;;
62338;SDS011;48368;53.406;6.214;2022-12-18T05:38:26;118.38;;;34.70;;
62338;SDS011;48368;53.406;6.214;2022-12-18T05:40:54;126.75;;;40.33;;
62338;SDS011;48368;53.406;6.214;2022-12-18T05:43:20;103.97;;;36.80;;
62338;SDS011;48368;53.406;6.214;2022-12-18T05:45:46;99.15;;;34.63;;
62338;SDS011;48368;53.406;6.214;2022-12-18T05:48:13;96.25;;;32.05;;
62338;SDS011;48368;53.406;6.214;2022-12-18T05:50:39;115.25;;;34.60;;
62338;SDS011;48368;53.406;6.214;2022-12-18T05:53:06;106.07;;;34.03;;
62338;SDS011;48368;53.406;6.214;2022-12-18T05:55:33;107.43;;;35.80;;
62338;SDS011;48368;53.406;6.214;2022-12-18T05:58:06;106.07;;;36.00;;
62338;SDS011;48368;53.406;6.214;2022-12-18T06:00:33;95.80;;;33.35;;
62338;SDS011;48368;53.406;6.214;2022-12-18T06:03:01;96.15;;;33.42;;
62338;SDS011;48368;53.406;6.214;2022-12-18T06:05:34;92.07;;;31.02;;
62338;SDS011;48368;53.406;6.214;2022-12-18T06:08:07;97.53;;;31.15;;
62338;SDS011;48368;53.406;6.214;2022-12-18T06:10:33;88.85;;;33.20;;
62338;SDS011;48368;53.406;6.214;2022-12-18T06:12:59;100.50;;;32.90;;
62338;SDS011;48368;53.406;6.214;2022-12-18T06:15:26;93.10;;;31.13;;
62338;SDS011;48368;53.406;6.214;2022-12-18T06:17:51;94.72;;;34.47;;
62338;SDS011;48368;53.406;6.214;2022-12-18T06:20:17;95.13;;;34.15;;
62338;SDS011;48368;53.406;6.214;2022-12-18T06:22:43;96.57;;;33.95;;
62338;SDS011;48368;53.406;6.214;2022-12-18T06:25:08;95.85;;;35.28;;
62338;SDS011;48368;53.406;6.214;2022-12-18T06:27:34;93.50;;;33.28;;
62338;SDS011;48368;53.406;6.214;2022-12-18T06:30:00;84.47;;;32.42;;
62338;SDS011;48368;53.406;6.214;2022-12-18T06:32:26;92.05;;;32.38;;
62338;SDS011;48368;53.406;6.214;2022-12-18T06:34:51;77.70;;;28.75;;
62338;SDS011;48368;53.406;6.214;2022-12-18T06:37:18;95.10;;;31.83;;
62338;SDS011;48368;53.406;6.214;2022-12-18T06:39:44;81.53;;;31.33;;
62338;SDS011;48368;53.406;6.214;2022-12-18T06:42:10;95.13;;;34.97;;
62338;SDS011;48368;53.406;6.214;2022-12-18T06:44:36;88.63;;;30.23;;
62338;SDS011;48368;53.406;6.214;2022-12-18T06:47:01;87.65;;;30.98;;
62338;SDS011;48368;53.406;6.214;2022-12-18T06:49:27;88.82;;;32.08;;
62338;SDS011;48368;53.406;6.214;2022-12-18T06:51:55;81.75;;;31.55;;
62338;SDS011;48368;53.406;6.214;2022-12-18T06:54:21;76.40;;;27.83;;
62338;SDS011;48368;53.406;6.214;2022-12-18T06:56:46;72.80;;;28.60;;
62338;SDS011;48368;53.406;6.214;2022-12-18T06:59:13;88.93;;;32.10;;
62338;SDS011;48368;53.406;6.214;2022-12-18T07:01:39;74.68;;;27.55;;
62338;SDS011;48368;53.406;6.214;2022-12-18T07:04:05;85.03;;;31.77;;
62338;SDS011;48368;53.406;6.214;2022-12-18T07:06:31;85.60;;;29.95;;
62338;SDS011;48368;53.406;6.214;2022-12-18T07:08:56;81.28;;;29.80;;
62338;SDS011;48368;53.406;6.214;2022-12-18T07:11:22;86.72;;;30.42;;
62338;SDS011;48368;53.406;6.214;2022-12-18T07:13:48;72.43;;;26.27;;
62338;SDS011;48368;53.406;6.214;2022-12-18T07:16:15;88.03;;;29.83;;
62338;SDS011;48368;53.406;6.214;2022-12-18T07:18:42;83.35;;;27.65;;
62338;SDS011;48368;53.406;6.214;2022-12-18T07:21:09;87.13;;;29.00;;
62338;SDS011;48368;53.406;6.214;2022-12-18T07:23:38;66.88;;;26.33;;
62338;SDS011;48368;53.406;6.214;2022-12-18T07:26:05;86.57;;;30.90;;
62338;SDS011;48368;53.406;6.214;2022-12-18T07:28:36;83.80;;;33.33;;
62338;SDS011;48368;53.406;6.214;2022-12-18T07:31:06;82.30;;;28.73;;
62338;SDS011;48368;53.406;6.214;2022-12-18T07:33:42;87.70;;;30.38;;
62338;SDS011;48368;53.406;6.214;2022-12-18T07:36:09;88.32;;;30.77;;
62338;SDS011;48368;53.406;6.214;2022-12-18T07:38:35;89.65;;;35.55;;
62338;SDS011;48368;53.406;6.214;2022-12-18T07:41:01;104.97;;;38.42;;
62338;SDS011;48368;53.406;6.214;2022-12-18T07:43:28;86.80;;;35.20;;
62338;SDS011;48368;53.406;6.214;2022-12-18T07:45:54;103.00;;;43.95;;
62338;SDS011;48368;53.406;6.214;2022-12-18T07:48:20;107.95;;;46.75;;
62338;SDS011;48368;53.406;6.214;2022-12-18T07:50:46;103.95;;;37.25;;
62338;SDS011;48368;53.406;6.214;2022-12-18T07:53:11;110.57;;;40.78;;
62338;SDS011;48368;53.406;6.214;2022-12-18T07:55:37;126.82;;;45.90;;
62338;SDS011;48368;53.406;6.214;2022-12-18T07:58:03;84.45;;;34.67;;
62338;SDS011;48368;53.406;6.214;2022-12-18T08:00:29;83.10;;;31.73;;
62338;SDS011;48368;53.406;6.214;2022-12-18T08:02:56;77.38;;;32.22;;
62338;SDS011;48368;53.406;6.214;2022-12-18T08:05:23;72.63;;;27.80;;
62338;SDS011;48368;53.406;6.214;2022-12-18T08:07:48;82.97;;;29.50;;
62338;SDS011;48368;53.406;6.214;2022-12-18T08:10:14;83.55;;;31.13;;
62338;SDS011;48368;53.406;6.214;2022-12-18T08:12:40;78.07;;;30.73;;
62338;SDS011;48368;53.406;6.214;2022-12-18T08:15:06;69.63;;;28.27;;
62338;SDS011;48368;53.406;6.214;2022-12-18T08:17:32;73.75;;;28.42;;
62338;SDS011;48368;53.406;6.214;2022-12-18T08:19:58;81.93;;;29.58;;
62338;SDS011;48368;53.406;6.214;2022-12-18T08:22:24;84.85;;;32.30;;
62338;SDS011;48368;53.406;6.214;2022-12-18T08:24:50;76.70;;;29.40;;
62338;SDS011;48368;53.406;6.214;2022-12-18T08:27:15;84.57;;;29.83;;
62338;SDS011;48368;53.406;6.214;2022-12-18T08:29:41;72.05;;;27.30;;
62338;SDS011;48368;53.406;6.214;2022-12-18T08:32:07;75.93;;;29.85;;
62338;SDS011;48368;53.406;6.214;2022-12-18T08:34:33;69.32;;;28.45;;
62338;SDS011;48368;53.406;6.214;2022-12-18T08:36:59;87.43;;;31.10;;
62338;SDS011;48368;53.406;6.214;2022-12-18T08:39:24;73.35;;;26.27;;
62338;SDS011;48368;53.406;6.214;2022-12-18T08:41:53;72.00;;;28.65;;
62338;SDS011;48368;53.406;6.214;2022-12-18T08:44:37;65.28;;;28.25;;
62338;SDS011;48368;53.406;6.214;2022-12-18T08:47:03;74.43;;;29.50;;
62338;SDS011;48368;53.406;6.214;2022-12-18T08:49:29;72.30;;;30.48;;
62338;SDS011;48368;53.406;6.214;2022-12-18T08:51:55;71.72;;;28.55;;
62338;SDS011;48368;53.406;6.214;2022-12-18T08:54:25;65.40;;;25.77;;
62338;SDS011;48368;53.406;6.214;2022-12-18T08:56:51;80.53;;;30.15;;
62338;SDS011;48368;53.406;6.214;2022-12-18T08:59:17;77.97;;;30.70;;
62338;SDS011;48368;53.406;6.214;2022-12-18T09:01:43;71.93;;;27.92;;
62338;SDS011;48368;53.406;6.214;2022-12-18T09:04:09;79.55;;;28.90;;
62338;SDS011;48368;53.406;6.214;2022-12-18T09:06:35;64.25;;;28.55;;
62338;SDS011;48368;53.406;6.214;2022-12-18T09:09:01;60.20;;;26.40;;
62338;SDS011;48368;53.406;6.214;2022-12-18T09:11:28;69.07;;;30.52;;
62338;SDS011;48368;53.406;6.214;2022-12-18T09:13:54;69.30;;;26.80;;
62338;SDS011;48368;53.406;6.214;2022-12-18T09:16:21;66.97;;;29.05;;
62338;SDS011;48368;53.406;6.214;2022-12-18T09:18:48;64.88;;;27.45;;
62338;SDS011;48368;53.406;6.214;2022-12-18T09:21:17;67.15;;;26.83;;
62338;SDS011;48368;53.406;6.214;2022-12-18T09:23:48;58.92;;;26.10;;
62338;SDS011;48368;53.406;6.214;2022-12-18T09:26:18;62.92;;;26.77;;
62338;SDS011;48368;53.406;6.214;2022-12-18T09:28:44;61.22;;;24.70;;
62338;SDS011;48368;53.406;6.214;2022-12-18T09:31:11;55.25;;;26.27;;
62338;SDS011;48368;53.406;6.214;2022-12-18T09:33:40;74.40;;;27.98;;
62338;SDS011;48368;53.406;6.214;2022-12-18T09:36:11;60.88;;;28.50;;
62338;SDS011;48368;53.406;6.214;2022-12-18T09:38:39;63.33;;;27.30;;
62338;SDS011;48368;53.406;6.214;2022-12-18T09:44:00;66.25;;;27.08;;
62338;SDS011;48368;53.406;6.214;2022-12-18T09:46:32;63.10;;;26.30;;
62338;SDS011;48368;53.406;6.214;2022-12-18T09:49:02;64.82;;;26.80;;
62338;SDS011;48368;53.406;6.214;2022-12-18T09:54:10;55.20;;;25.45;;
62338;SDS011;48368;53.406;6.214;2022-12-18T09:56:41;64.57;;;26.27;;
62338;SDS011;48368;53.406;6.214;2022-12-18T09:59:29;58.05;;;26.85;;
62338;SDS011;48368;53.406;6.214;2022-12-18T10:01:58;61.70;;;26.42;;
62338;SDS011;48368;53.406;6.214;2022-12-18T10:04:24;58.13;;;26.80;;
62338;SDS011;48368;53.406;6.214;2022-12-18T10:07:16;55.88;;;25.90;;
62338;SDS011;48368;53.406;6.214;2022-12-18T10:10:07;53.88;;;24.75;;
62338;SDS011;48368;53.406;6.214;2022-12-18T10:12:47;67.25;;;26.67;;
62338;SDS011;48368;53.406;6.214;2022-12-18T10:20:49;62.67;;;29.10;;
62338;SDS011;48368;53.406;6.214;2022-12-18T10:23:56;58.22;;;27.08;;
62338;SDS011;48368;53.406;6.214;2022-12-18T10:26:16;67.50;;;27.20;;
62338;SDS011;48368;53.406;6.214;2022-12-18T10:28:42;59.08;;;26.70;;
62338;SDS011;48368;53.406;6.214;2022-12-18T10:31:16;55.75;;;25.55;;
62338;SDS011;48368;53.406;6.214;2022-12-18T10:33:44;50.88;;;21.92;;
62338;SDS011;48368;53.406;6.214;2022-12-18T10:36:10;58.67;;;23.55;;
62338;SDS011;48368;53.406;6.214;2022-12-18T10:38:36;52.10;;;23.52;;
62338;SDS011;48368;53.406;6.214;2022-12-18T10:41:03;50.58;;;24.95;;
62338;SDS011;48368;53.406;6.214;2022-12-18T10:43:33;54.35;;;23.88;;
62338;SDS011;48368;53.406;6.214;2022-12-18T10:48:33;49.92;;;23.23;;
62338;SDS011;48368;53.406;6.214;2022-12-18T10:53:32;48.92;;;21.33;;
62338;SDS011;48368;53.406;6.214;2022-12-18T10:56:02;47.65;;;19.27;;
62338;SDS011;48368;53.406;6.214;2022-12-18T11:01:11;40.75;;;20.08;;
62338;SDS011;48368;53.406;6.214;2022-12-18T11:06:17;40.28;;;19.73;;
62338;SDS011;48368;53.406;6.214;2022-12-18T11:09:32;37.72;;;18.15;;
62338;SDS011;48368;53.406;6.214;2022-12-18T11:11:52;42.78;;;18.10;;
62338;SDS011;48368;53.406;6.214;2022-12-18T11:14:28;38.97;;;18.05;;
62338;SDS011;48368;53.406;6.214;2022-12-18T11:16:59;41.85;;;19.25;;
62338;SDS011;48368;53.406;6.214;2022-12-18T11:22:02;35.58;;;17.00;;
62338;SDS011;48368;53.406;6.214;2022-12-18T11:24:49;33.05;;;16.73;;
62338;SDS011;48368;53.406;6.214;2022-12-18T11:27:18;38.10;;;17.05;;
62338;SDS011;48368;53.406;6.214;2022-12-18T11:29:44;44.15;;;16.83;;
62338;SDS011;48368;53.406;6.214;2022-12-18T11:34:41;59.03;;;25.63;;
62338;SDS011;48368;53.406;6.214;2022-12-18T11:37:10;57.25;;;23.35;;
62338;SDS011;48368;53.406;6.214;2022-12-18T11:39:45;44.55;;;19.77;;
62338;SDS011;48368;53.406;6.214;2022-12-18T11:42:20;41.55;;;18.98;;
62338;SDS011;48368;53.406;6.214;2022-12-18T11:44:57;48.15;;;19.48;;
62338;SDS011;48368;53.406;6.214;2022-12-18T11:49:56;40.65;;;20.17;;
62338;SDS011;48368;53.406;6.214;2022-12-18T11:52:59;39.70;;;18.52;;
62338;SDS011;48368;53.406;6.214;2022-12-18T11:55:37;37.08;;;19.35;;
62338;SDS011;48368;53.406;6.214;2022-12-18T12:01:10;36.78;;;20.15;;
62338;SDS011;48368;53.406;6.214;2022-12-18T12:09:27;34.72;;;16.48;;
62338;SDS011;48368;53.406;6.214;2022-12-18T12:12:10;31.27;;;13.93;;
62338;SDS011;48368;53.406;6.214;2022-12-18T12:21:25;30.52;;;13.77;;
62338;SDS011;48368;53.406;6.214;2022-12-18T12:26:49;29.23;;;13.13;;
62338;SDS011;48368;53.406;6.214;2022-12-18T12:40:20;25.30;;;10.77;;
62338;SDS011;48368;53.406;6.214;2022-12-18T12:42:56;22.33;;;11.63;;
62338;SDS011;48368;53.406;6.214;2022-12-18T12:45:47;46.90;;;18.65;;
62338;SDS011;48368;53.406;6.214;2022-12-18T12:48:17;44.03;;;16.80;;
62338;SDS011;48368;53.406;6.214;2022-12-18T12:50:53;76.55;;;27.02;;
62338;SDS011;48368;53.406;6.214;2022-12-18T12:53:23;37.13;;;16.05;;
62338;SDS011;48368;53.406;6.214;2022-12-18T12:58:26;40.80;;;17.27;;
62338;SDS011;48368;53.406;6.214;2022-12-18T13:01:20;40.97;;;16.40;;
62338;SDS011;48368;53.406;6.214;2022-12-18T13:09:16;23.08;;;11.95;;
62338;SDS011;48368;53.406;6.214;2022-12-18T13:11:42;25.02;;;12.73;;
62338;SDS011;48368;53.406;6.214;2022-12-18T13:14:37;22.05;;;10.25;;
62338;SDS011;48368;53.406;6.214;2022-12-18T13:17:15;21.88;;;10.02;;
62338;SDS011;48368;53.406;6.214;2022-12-18T13:19:44;24.90;;;11.30;;
62338;SDS011;48368;53.406;6.214;2022-12-18T13:22:23;19.50;;;10.48;;
62338;SDS011;48368;53.406;6.214;2022-12-18T13:25:20;15.85;;;8.88;;
62338;SDS011;48368;53.406;6.214;2022-12-18T13:35:53;25.45;;;10.98;;
62338;SDS011;48368;53.406;6.214;2022-12-18T13:38:44;20.25;;;10.18;;
62338;SDS011;48368;53.406;6.214;2022-12-18T13:46:28;29.55;;;13.27;;
62338;SDS011;48368;53.406;6.214;2022-12-18T13:51:33;26.00;;;11.02;;
62338;SDS011;48368;53.406;6.214;2022-12-18T13:54:00;22.02;;;9.43;;
62338;SDS011;48368;53.406;6.214;2022-12-18T13:56:49;20.17;;;10.85;;
62338;SDS011;48368;53.406;6.214;2022-12-18T13:59:25;17.98;;;9.02;;
62338;SDS011;48368;53.406;6.214;2022-12-18T14:02:05;19.88;;;9.00;;
62338;SDS011;48368;53.406;6.214;2022-12-18T14:04:40;58.38;;;21.80;;
62338;SDS011;48368;53.406;6.214;2022-12-18T14:07:16;39.88;;;17.15;;
62338;SDS011;48368;53.406;6.214;2022-12-18T14:09:48;36.22;;;14.25;;
62338;SDS011;48368;53.406;6.214;2022-12-18T14:12:32;23.42;;;9.90;;
62338;SDS011;48368;53.406;6.214;2022-12-18T14:17:50;21.80;;;10.50;;
62338;SDS011;48368;53.406;6.214;2022-12-18T14:20:17;20.27;;;10.15;;
62338;SDS011;48368;53.406;6.214;2022-12-18T14:22:44;18.17;;;8.88;;
62338;SDS011;48368;53.406;6.214;2022-12-18T14:25:19;18.77;;;10.02;;
62338;SDS011;48368;53.406;6.214;2022-12-18T14:27:50;18.27;;;9.23;;
62338;SDS011;48368;53.406;6.214;2022-12-18T14:30:32;21.25;;;9.10;;
62338;SDS011;48368;53.406;6.214;2022-12-18T14:35:39;22.40;;;9.35;;
62338;SDS011;48368;53.406;6.214;2022-12-18T14:41:02;22.50;;;9.85;;
62338;SDS011;48368;53.406;6.214;2022-12-18T14:43:35;24.98;;;11.45;;
62338;SDS011;48368;53.406;6.214;2022-12-18T14:46:03;19.20;;;9.95;;
62338;SDS011;48368;53.406;6.214;2022-12-18T14:51:20;22.73;;;9.07;;
62338;SDS011;48368;53.406;6.214;2022-12-18T14:53:48;22.98;;;9.70;;
62338;SDS011;48368;53.406;6.214;2022-12-18T14:56:29;18.70;;;10.67;;
62338;SDS011;48368;53.406;6.214;2022-12-18T14:59:03;17.40;;;9.35;;
62338;SDS011;48368;53.406;6.214;2022-12-18T15:01:35;21.55;;;10.05;;
62338;SDS011;48368;53.406;6.214;2022-12-18T15:04:03;20.40;;;10.00;;
62338;SDS011;48368;53.406;6.214;2022-12-18T15:06:31;22.00;;;9.95;;
62338;SDS011;48368;53.406;6.214;2022-12-18T15:09:00;19.58;;;10.88;;
62338;SDS011;48368;53.406;6.214;2022-12-18T15:11:46;21.15;;;10.98;;
62338;SDS011;48368;53.406;6.214;2022-12-18T15:14:22;21.92;;;10.25;;
62338;SDS011;48368;53.406;6.214;2022-12-18T15:17:01;67.68;;;21.17;;
62338;SDS011;48368;53.406;6.214;2022-12-18T15:19:44;22.00;;;10.15;;
62338;SDS011;48368;53.406;6.214;2022-12-18T15:22:57;27.85;;;12.95;;
62338;SDS011;48368;53.406;6.214;2022-12-18T15:25:01;27.95;;;13.75;;
62338;SDS011;48368;53.406;6.214;2022-12-18T15:27:30;23.30;;;11.98;;
62338;SDS011;48368;53.406;6.214;2022-12-18T15:32:35;20.48;;;10.60;;
62338;SDS011;48368;53.406;6.214;2022-12-18T15:37:41;23.95;;;10.32;;
62338;SDS011;48368;53.406;6.214;2022-12-18T15:40:11;22.73;;;10.50;;
62338;SDS011;48368;53.406;6.214;2022-12-18T15:42:38;17.50;;;9.27;;
62338;SDS011;48368;53.406;6.214;2022-12-18T15:45:22;19.77;;;9.75;;
62338;SDS011;48368;53.406;6.214;2022-12-18T15:47:48;19.60;;;8.38;;
62338;SDS011;48368;53.406;6.214;2022-12-18T15:50:14;20.80;;;9.68;;
62338;SDS011;48368;53.406;6.214;2022-12-18T15:52:41;19.85;;;9.60;;
62338;SDS011;48368;53.406;6.214;2022-12-18T15:55:13;19.17;;;11.63;;
62338;SDS011;48368;53.406;6.214;2022-12-18T15:57:58;29.85;;;14.02;;
62338;SDS011;48368;53.406;6.214;2022-12-18T16:00:24;24.55;;;11.30;;
62338;SDS011;48368;53.406;6.214;2022-12-18T16:02:50;28.48;;;11.65;;
62338;SDS011;48368;53.406;6.214;2022-12-18T16:05:16;26.15;;;12.20;;
62338;SDS011;48368;53.406;6.214;2022-12-18T16:07:43;25.02;;;11.20;;
62338;SDS011;48368;53.406;6.214;2022-12-18T16:10:10;22.17;;;11.20;;
62338;SDS011;48368;53.406;6.214;2022-12-18T16:12:36;23.10;;;12.95;;
62338;SDS011;48368;53.406;6.214;2022-12-18T16:15:02;21.02;;;11.98;;
62338;SDS011;48368;53.406;6.214;2022-12-18T16:17:29;21.95;;;11.05;;
62338;SDS011;48368;53.406;6.214;2022-12-18T16:19:55;22.48;;;11.23;;
62338;SDS011;48368;53.406;6.214;2022-12-18T16:22:21;25.70;;;13.50;;
62338;SDS011;48368;53.406;6.214;2022-12-18T16:24:53;26.23;;;12.07;;
62338;SDS011;48368;53.406;6.214;2022-12-18T16:27:31;27.83;;;12.35;;
62338;SDS011;48368;53.406;6.214;2022-12-18T16:29:56;25.83;;;12.27;;
62338;SDS011;48368;53.406;6.214;2022-12-18T16:32:22;29.02;;;12.80;;
62338;SDS011;48368;53.406;6.214;2022-12-18T16:34:48;29.10;;;13.73;;
62338;SDS011;48368;53.406;6.214;2022-12-18T16:37:14;24.67;;;12.73;;
62338;SDS011;48368;53.406;6.214;2022-12-18T16:39:41;25.52;;;12.75;;
62338;SDS011;48368;53.406;6.214;2022-12-18T16:42:10;31.52;;;14.07;;